AZO955 URMT-UTDK
Flight info
| Callsign | AZO955 |
|---|---|
| Flight time | 3h 0m |
| Altitude | 37000 |
| Route | DIPOR1F DIPOR A924 RALAN Z581 AKT N193 EKDUP N144 NAKUK Z514 OGNOB Y595 SOPNO A107 NAVOX NAVOX1A |
| Aircraft | B738/M-SDE2E3FGHIRWXY/LB1 |
Departure
| Time | 2026-04-23 22:36 |
|---|---|
| Airport | Stavropol Shpakovskoye Airport (URMT) |
Arrival
| Time | 2026-04-24 01:36 |
|---|---|
| Airport | Kulob International Airport (UTDK) |
| Time | Latitude | Longitude | Altitude | Speed | Heading |
|---|---|---|---|---|---|
| 2026-04-23 22:29 | 45.11051 | 42.10567 | 1492 ft | 0 kts | 76° |
| 2026-04-23 22:29 | 45.11052 | 42.10567 | 1492 ft | 1 kts | 76° |
| 2026-04-23 22:29 | 45.11059 | 42.10612 | 1486 ft | 9 kts | 76° |
| 2026-04-23 22:30 | 45.11062 | 42.10712 | 1490 ft | 11 kts | 123° |
| 2026-04-23 22:30 | 45.10997 | 42.10753 | 1490 ft | 0 kts | 166° |
| 2026-04-23 22:30 | 45.10979 | 42.10759 | 1489 ft | 5 kts | 166° |
| 2026-04-23 22:30 | 45.10971 | 42.10762 | 1485 ft | 1 kts | 166° |
| 2026-04-23 22:31 | 45.10947 | 42.10770 | 1495 ft | 6 kts | 166° |
| 2026-04-23 22:31 | 45.10895 | 42.10793 | 1490 ft | 9 kts | 152° |
| 2026-04-23 22:31 | 45.10862 | 42.10885 | 1495 ft | 14 kts | 89° |
| 2026-04-23 22:31 | 45.10887 | 42.11040 | 1487 ft | 19 kts | 76° |
| 2026-04-23 22:32 | 45.10924 | 42.11245 | 1487 ft | 23 kts | 76° |
| 2026-04-23 22:32 | 45.10967 | 42.11484 | 1486 ft | 27 kts | 76° |
| 2026-04-23 22:32 | 45.11015 | 42.11750 | 1487 ft | 29 kts | 76° |
| 2026-04-23 22:32 | 45.11068 | 42.12041 | 1492 ft | 31 kts | 75° |
| 2026-04-23 22:33 | 45.11123 | 42.12352 | 1496 ft | 34 kts | 76° |
| 2026-04-23 22:33 | 45.11169 | 42.12605 | 1487 ft | 20 kts | 76° |
| 2026-04-23 22:33 | 45.11225 | 42.12770 | 1493 ft | 10 kts | 44° |
| 2026-04-23 22:33 | 45.11238 | 42.12789 | 1489 ft | 2 kts | 46° |
| 2026-04-23 22:34 | 45.11252 | 42.12820 | 1494 ft | 6 kts | 69° |
| 2026-04-23 22:34 | 45.11234 | 42.12857 | 1491 ft | 6 kts | 167° |
| 2026-04-23 22:34 | 45.11197 | 42.12843 | 1483 ft | 0 kts | 229° |
| 2026-04-23 22:34 | 45.11191 | 42.12827 | 1486 ft | 3 kts | 257° |
| 2026-04-23 22:35 | 45.11189 | 42.12754 | 1495 ft | 14 kts | 265° |
| 2026-04-23 22:35 | 45.11154 | 42.12514 | 1497 ft | 53 kts | 256° |
| 2026-04-23 22:35 | 45.10992 | 42.11618 | 1489 ft | 132 kts | 255° |
| 2026-04-23 22:35 | 45.10703 | 42.10066 | 1655 ft | 185 kts | 254° |
| 2026-04-23 22:36 | 45.10353 | 42.08253 | 2518 ft | 192 kts | 254° |
| 2026-04-23 22:36 | 45.10036 | 42.06486 | 3789 ft | 177 kts | 256° |
| 2026-04-23 22:36 | 45.09741 | 42.04840 | 4842 ft | 175 kts | 257° |
| 2026-04-23 22:36 | 45.09422 | 42.03075 | 5120 ft | 196 kts | 256° |
| 2026-04-23 22:37 | 45.09066 | 42.01130 | 5353 ft | 212 kts | 257° |
| 2026-04-23 22:37 | 45.08691 | 41.99072 | 5808 ft | 218 kts | 259° |
| 2026-04-23 22:37 | 45.08718 | 41.96937 | 6346 ft | 220 kts | 284° |
| 2026-04-23 22:37 | 45.09389 | 41.94981 | 6807 ft | 228 kts | 302° |
| 2026-04-23 22:38 | 45.10626 | 41.93494 | 7206 ft | 244 kts | 330° |
| 2026-04-23 22:38 | 45.12268 | 41.92717 | 7673 ft | 253 kts | 339° |
| 2026-04-23 22:38 | 45.13999 | 41.92097 | 8063 ft | 265 kts | 340° |
| 2026-04-23 22:38 | 45.15907 | 41.91725 | 8357 ft | 291 kts | 0° |
| 2026-04-23 22:39 | 45.17874 | 41.92651 | 8895 ft | 310 kts | 31° |
| 2026-04-23 22:39 | 45.19329 | 41.94937 | 9475 ft | 319 kts | 65° |
| 2026-04-23 22:39 | 45.19986 | 41.97941 | 10047 ft | 322 kts | 81° |
| 2026-04-23 22:39 | 45.20429 | 42.01158 | 10228 ft | 343 kts | 81° |
| 2026-04-23 22:40 | 45.20669 | 42.04593 | 10377 ft | 358 kts | 100° |
| 2026-04-23 22:40 | 45.19961 | 42.07979 | 10611 ft | 361 kts | 124° |
| 2026-04-23 22:40 | 45.16324 | 42.12413 | 11721 ft | 342 kts | 168° |
| 2026-04-23 22:41 | 45.14045 | 42.13281 | 12396 ft | 340 kts | 173° |
| 2026-04-23 22:41 | 45.11754 | 42.14058 | 13021 ft | 344 kts | 173° |
| 2026-04-23 22:41 | 45.09451 | 42.15142 | 13638 ft | 360 kts | 158° |
| 2026-04-23 22:41 | 45.07476 | 42.17432 | 14240 ft | 379 kts | 135° |
| 2026-04-23 22:42 | 45.06194 | 42.20767 | 14863 ft | 398 kts | 112° |
| 2026-04-23 22:42 | 45.05804 | 42.24715 | 15456 ft | 410 kts | 97° |
| 2026-04-23 22:42 | 45.05701 | 42.28778 | 15994 ft | 417 kts | 95° |
| 2026-04-23 22:42 | 45.05627 | 42.32898 | 16528 ft | 422 kts | 95° |
| 2026-04-23 22:43 | 45.05548 | 42.37071 | 17097 ft | 427 kts | 96° |
| 2026-04-23 22:43 | 45.05449 | 42.41290 | 17676 ft | 431 kts | 96° |
| 2026-04-23 22:43 | 45.05336 | 42.45542 | 18198 ft | 435 kts | 96° |
| 2026-04-23 22:43 | 45.05211 | 42.49842 | 18662 ft | 440 kts | 96° |
| 2026-04-23 22:44 | 45.05077 | 42.54187 | 19143 ft | 444 kts | 97° |
| 2026-04-23 22:44 | 45.04938 | 42.58571 | 19620 ft | 448 kts | 97° |
| 2026-04-23 22:44 | 45.04797 | 42.62995 | 20086 ft | 452 kts | 97° |
| 2026-04-23 22:44 | 45.04703 | 42.65942 | 20396 ft | 455 kts | 97° |
| 2026-04-23 22:45 | 45.04552 | 42.70625 | 20875 ft | 459 kts | 97° |
| 2026-04-23 22:45 | 45.04401 | 42.75170 | 21336 ft | 463 kts | 98° |
| 2026-04-23 22:45 | 45.04102 | 42.79693 | 21787 ft | 463 kts | 103° |
| 2026-04-23 22:45 | 45.03641 | 42.84215 | 22249 ft | 466 kts | 105° |
| 2026-04-23 22:46 | 45.03117 | 42.88747 | 22680 ft | 469 kts | 106° |
| 2026-04-23 22:46 | 45.02585 | 42.93305 | 23105 ft | 473 kts | 106° |
| 2026-04-23 22:46 | 45.02062 | 42.97921 | 23514 ft | 476 kts | 105° |
| 2026-04-23 22:46 | 45.01556 | 43.02558 | 23880 ft | 479 kts | 105° |
| 2026-04-23 22:47 | 45.01059 | 43.07229 | 24249 ft | 482 kts | 105° |
| 2026-04-23 22:47 | 45.00563 | 43.11941 | 24608 ft | 485 kts | 105° |
| 2026-04-23 22:47 | 45.00065 | 43.16667 | 24953 ft | 487 kts | 105° |
| 2026-04-23 22:47 | 44.99563 | 43.21404 | 25297 ft | 490 kts | 105° |
| 2026-04-23 22:48 | 44.99054 | 43.26182 | 25627 ft | 493 kts | 105° |
| 2026-04-23 22:48 | 44.98544 | 43.30925 | 25937 ft | 495 kts | 105° |
| 2026-04-23 22:48 | 44.98022 | 43.35743 | 26259 ft | 498 kts | 105° |
| 2026-04-23 22:48 | 44.97490 | 43.40589 | 26584 ft | 500 kts | 105° |
| 2026-04-23 22:49 | 44.96951 | 43.45439 | 26887 ft | 503 kts | 105° |
| 2026-04-23 22:49 | 44.96406 | 43.50328 | 27183 ft | 505 kts | 105° |
| 2026-04-23 22:49 | 44.95856 | 43.55243 | 27500 ft | 508 kts | 105° |
| 2026-04-23 22:49 | 44.95303 | 43.60179 | 27819 ft | 510 kts | 105° |
| 2026-04-23 22:50 | 44.94747 | 43.65130 | 28121 ft | 512 kts | 105° |
| 2026-04-23 22:50 | 44.94188 | 43.70098 | 28413 ft | 514 kts | 105° |
| 2026-04-23 22:50 | 44.93622 | 43.75095 | 28714 ft | 516 kts | 105° |
| 2026-04-23 22:50 | 44.93055 | 43.80095 | 29009 ft | 518 kts | 105° |
| 2026-04-23 22:51 | 44.92482 | 43.85119 | 29276 ft | 520 kts | 105° |
| 2026-04-23 22:51 | 44.91904 | 43.90164 | 29547 ft | 521 kts | 105° |
| 2026-04-23 22:51 | 44.91323 | 43.95219 | 29806 ft | 523 kts | 105° |
| 2026-04-23 22:51 | 44.90739 | 44.00286 | 30113 ft | 522 kts | 105° |
| 2026-04-23 22:52 | 44.90155 | 44.05336 | 30457 ft | 521 kts | 105° |
| 2026-04-23 22:52 | 44.89570 | 44.10372 | 30795 ft | 520 kts | 105° |
| 2026-04-23 22:52 | 44.89024 | 44.15052 | 31070 ft | 519 kts | 105° |
| 2026-04-23 22:52 | 44.88434 | 44.20076 | 31351 ft | 519 kts | 104° |
| 2026-04-23 22:53 | 44.87843 | 44.25097 | 31640 ft | 518 kts | 104° |
| 2026-04-23 22:53 | 44.87250 | 44.30109 | 31938 ft | 518 kts | 104° |
| 2026-04-23 22:53 | 44.86658 | 44.35099 | 32225 ft | 517 kts | 104° |
| 2026-04-23 22:53 | 44.86062 | 44.40100 | 32528 ft | 516 kts | 104° |
| 2026-04-23 22:54 | 44.85468 | 44.45078 | 32822 ft | 515 kts | 104° |
| 2026-04-23 22:54 | 44.84872 | 44.50050 | 33103 ft | 515 kts | 104° |
| 2026-04-23 22:54 | 44.84290 | 44.54890 | 33378 ft | 514 kts | 104° |
| 2026-04-23 22:54 | 44.83682 | 44.59980 | 33678 ft | 513 kts | 104° |
| 2026-04-23 22:55 | 44.83328 | 44.62941 | 33838 ft | 512 kts | 104° |
| 2026-04-23 22:55 | 44.82739 | 44.67883 | 34069 ft | 511 kts | 104° |
| 2026-04-23 22:55 | 44.82149 | 44.72814 | 34357 ft | 509 kts | 104° |
| 2026-04-23 22:55 | 44.81759 | 44.76069 | 34565 ft | 507 kts | 104° |
| 2026-04-23 22:56 | 44.81171 | 44.80948 | 34860 ft | 504 kts | 104° |
| 2026-04-23 22:56 | 44.80582 | 44.85815 | 35084 ft | 503 kts | 104° |
| 2026-04-23 22:56 | 44.80238 | 44.88644 | 35198 ft | 503 kts | 104° |
| 2026-04-23 22:56 | 44.79647 | 44.93491 | 35414 ft | 502 kts | 104° |
| 2026-04-23 22:57 | 44.79056 | 44.98315 | 35653 ft | 500 kts | 104° |
| 2026-04-23 22:57 | 44.78464 | 45.03143 | 35897 ft | 498 kts | 104° |
| 2026-04-23 22:57 | 44.77874 | 45.07928 | 36164 ft | 496 kts | 104° |
| 2026-04-23 22:57 | 44.77284 | 45.12700 | 36429 ft | 493 kts | 104° |
| 2026-04-23 22:58 | 44.76694 | 45.17457 | 36625 ft | 493 kts | 104° |
| 2026-04-23 22:58 | 44.76102 | 45.22205 | 36776 ft | 493 kts | 104° |
| 2026-04-23 22:58 | 44.75507 | 45.26959 | 36836 ft | 493 kts | 104° |
| 2026-04-23 22:59 | 44.74311 | 45.36471 | 36855 ft | 494 kts | 104° |
| 2026-04-23 22:59 | 44.73117 | 45.45917 | 36861 ft | 493 kts | 104° |
| 2026-04-23 23:00 | 44.71910 | 45.55396 | 36862 ft | 492 kts | 104° |
| 2026-04-23 23:00 | 44.70696 | 45.64864 | 36866 ft | 492 kts | 104° |
| 2026-04-23 23:01 | 44.69463 | 45.74322 | 36864 ft | 491 kts | 105° |
| 2026-04-23 23:01 | 44.68636 | 45.80622 | 36862 ft | 490 kts | 105° |
| 2026-04-23 23:02 | 44.67818 | 45.86832 | 36880 ft | 490 kts | 105° |
| 2026-04-23 23:02 | 44.66578 | 45.96232 | 36863 ft | 489 kts | 105° |
| 2026-04-23 23:03 | 44.65325 | 46.05631 | 36869 ft | 489 kts | 105° |
| 2026-04-23 23:03 | 44.64066 | 46.15011 | 36871 ft | 489 kts | 105° |
| 2026-04-23 23:04 | 44.62800 | 46.24394 | 36864 ft | 489 kts | 105° |
| 2026-04-23 23:04 | 44.61535 | 46.33710 | 36867 ft | 489 kts | 105° |
| 2026-04-23 23:05 | 44.60247 | 46.43139 | 36863 ft | 493 kts | 105° |
| 2026-04-23 23:05 | 44.58945 | 46.52625 | 36862 ft | 497 kts | 106° |
| 2026-04-23 23:06 | 44.57625 | 46.62139 | 36869 ft | 500 kts | 106° |
| 2026-04-23 23:06 | 44.56287 | 46.71739 | 36864 ft | 502 kts | 106° |
| 2026-04-23 23:07 | 44.54954 | 46.81265 | 36844 ft | 493 kts | 106° |
| 2026-04-23 23:07 | 44.53635 | 46.90637 | 36853 ft | 490 kts | 106° |
| 2026-04-23 23:08 | 44.52312 | 46.99937 | 36860 ft | 489 kts | 106° |
| 2026-04-23 23:08 | 44.50978 | 47.09268 | 36861 ft | 489 kts | 106° |
| 2026-04-23 23:09 | 44.49634 | 47.18612 | 36854 ft | 489 kts | 107° |
| 2026-04-23 23:09 | 44.48284 | 47.27945 | 36852 ft | 490 kts | 107° |
| 2026-04-23 23:10 | 44.46922 | 47.37306 | 36850 ft | 490 kts | 107° |
| 2026-04-23 23:10 | 44.45552 | 47.46664 | 36847 ft | 491 kts | 107° |
| 2026-04-23 23:11 | 44.44172 | 47.56036 | 36848 ft | 492 kts | 107° |
| 2026-04-23 23:11 | 44.42780 | 47.65433 | 36845 ft | 493 kts | 107° |
| 2026-04-23 23:12 | 44.41381 | 47.74823 | 36844 ft | 494 kts | 107° |
| 2026-04-23 23:12 | 44.39971 | 47.84233 | 36841 ft | 494 kts | 107° |
| 2026-04-23 23:13 | 44.38561 | 47.93583 | 36841 ft | 494 kts | 107° |
| 2026-04-23 23:13 | 44.37135 | 48.02985 | 36841 ft | 494 kts | 107° |
| 2026-04-23 23:14 | 44.35704 | 48.12376 | 36843 ft | 494 kts | 107° |
| 2026-04-23 23:14 | 44.34264 | 48.21737 | 36843 ft | 494 kts | 107° |
| 2026-04-23 23:15 | 44.32805 | 48.31156 | 36843 ft | 494 kts | 107° |
| 2026-04-23 23:15 | 44.31346 | 48.40532 | 36846 ft | 494 kts | 107° |
| 2026-04-23 23:16 | 44.30444 | 48.46302 | 36841 ft | 494 kts | 107° |
| 2026-04-23 23:16 | 44.28977 | 48.55652 | 36841 ft | 493 kts | 107° |
| 2026-04-23 23:17 | 44.27501 | 48.64998 | 36846 ft | 493 kts | 107° |
| 2026-04-23 23:17 | 44.26029 | 48.74273 | 36834 ft | 492 kts | 107° |
| 2026-04-23 23:18 | 44.24540 | 48.83601 | 36831 ft | 492 kts | 107° |
| 2026-04-23 23:18 | 44.23307 | 48.91283 | 36830 ft | 492 kts | 107° |
| 2026-04-23 23:19 | 44.21804 | 49.00597 | 36831 ft | 492 kts | 107° |
| 2026-04-23 23:19 | 44.20297 | 49.09893 | 36831 ft | 492 kts | 107° |
| 2026-04-23 23:20 | 44.18778 | 49.19205 | 36825 ft | 493 kts | 107° |
| 2026-04-23 23:20 | 44.17251 | 49.28524 | 36825 ft | 494 kts | 107° |
| 2026-04-23 23:21 | 44.15714 | 49.37850 | 36819 ft | 494 kts | 108° |
| 2026-04-23 23:21 | 44.14169 | 49.47180 | 36821 ft | 495 kts | 107° |
| 2026-04-23 23:22 | 44.12634 | 49.56477 | 36817 ft | 496 kts | 107° |
| 2026-04-23 23:22 | 44.11110 | 49.65845 | 36809 ft | 496 kts | 107° |
| 2026-04-23 23:23 | 44.09798 | 49.73891 | 36811 ft | 497 kts | 107° |
| 2026-04-23 23:23 | 44.08257 | 49.83269 | 36808 ft | 496 kts | 107° |
| 2026-04-23 23:24 | 44.06711 | 49.92616 | 36805 ft | 496 kts | 107° |
| 2026-04-23 23:24 | 44.05158 | 50.01944 | 36795 ft | 495 kts | 107° |
| 2026-04-23 23:25 | 44.03602 | 50.11241 | 36794 ft | 493 kts | 107° |
| 2026-04-23 23:25 | 44.02045 | 50.20498 | 36789 ft | 492 kts | 107° |
| 2026-04-23 23:26 | 44.00966 | 50.26887 | 36793 ft | 491 kts | 107° |
| 2026-04-23 23:26 | 43.99313 | 50.36618 | 36790 ft | 489 kts | 108° |
| 2026-04-23 23:27 | 43.97746 | 50.45801 | 36789 ft | 488 kts | 108° |
| 2026-04-23 23:27 | 43.96184 | 50.54902 | 36796 ft | 487 kts | 108° |
| 2026-04-23 23:28 | 43.94608 | 50.64042 | 36796 ft | 487 kts | 108° |
| 2026-04-23 23:28 | 43.93020 | 50.73199 | 36796 ft | 488 kts | 108° |
| 2026-04-23 23:29 | 43.91426 | 50.82353 | 36802 ft | 489 kts | 108° |
| 2026-04-23 23:29 | 43.89819 | 50.91527 | 36802 ft | 490 kts | 108° |
| 2026-04-23 23:30 | 43.88203 | 51.00720 | 36805 ft | 492 kts | 108° |
| 2026-04-23 23:30 | 43.86652 | 51.09969 | 36797 ft | 495 kts | 105° |
| 2026-04-23 23:31 | 43.85444 | 51.19386 | 36804 ft | 497 kts | 103° |
| 2026-04-23 23:31 | 43.84313 | 51.28796 | 36804 ft | 498 kts | 103° |
| 2026-04-23 23:32 | 43.83129 | 51.38268 | 36797 ft | 499 kts | 103° |
| 2026-04-23 23:32 | 43.81907 | 51.47728 | 36808 ft | 499 kts | 103° |
| 2026-04-23 23:33 | 43.80877 | 51.55599 | 36803 ft | 499 kts | 103° |
| 2026-04-23 23:33 | 43.79531 | 51.65834 | 36805 ft | 499 kts | 103° |
| 2026-04-23 23:34 | 43.78286 | 51.75255 | 36807 ft | 498 kts | 103° |
| 2026-04-23 23:34 | 43.77030 | 51.84694 | 36810 ft | 497 kts | 103° |
| 2026-04-23 23:35 | 43.75772 | 51.94096 | 36808 ft | 496 kts | 104° |
| 2026-04-23 23:35 | 43.74509 | 52.03464 | 36811 ft | 495 kts | 103° |
| 2026-04-23 23:36 | 43.73240 | 52.12821 | 36817 ft | 494 kts | 104° |
| 2026-04-23 23:36 | 43.71965 | 52.22158 | 36818 ft | 494 kts | 104° |
| 2026-04-23 23:37 | 43.70693 | 52.31419 | 36820 ft | 493 kts | 103° |
| 2026-04-23 23:37 | 43.69410 | 52.40711 | 36819 ft | 492 kts | 104° |
| 2026-04-23 23:38 | 43.68158 | 52.50017 | 36820 ft | 492 kts | 103° |
| 2026-04-23 23:38 | 43.66931 | 52.59338 | 36818 ft | 492 kts | 103° |
| 2026-04-23 23:39 | 43.65689 | 52.68633 | 36815 ft | 492 kts | 103° |
| 2026-04-23 23:39 | 43.64420 | 52.77936 | 36821 ft | 492 kts | 103° |
| 2026-04-23 23:40 | 43.63140 | 52.87218 | 36813 ft | 492 kts | 103° |
| 2026-04-23 23:40 | 43.61853 | 52.96511 | 36821 ft | 492 kts | 103° |
| 2026-04-23 23:41 | 43.60570 | 53.05737 | 36822 ft | 492 kts | 103° |
| 2026-04-23 23:41 | 43.59272 | 53.15017 | 36811 ft | 492 kts | 103° |
| 2026-04-23 23:42 | 43.57968 | 53.24287 | 36823 ft | 492 kts | 103° |
| 2026-04-23 23:42 | 43.56656 | 53.33546 | 36828 ft | 492 kts | 103° |
| 2026-04-23 23:43 | 43.55342 | 53.42792 | 36816 ft | 491 kts | 103° |
| 2026-04-23 23:43 | 43.54021 | 53.52039 | 36824 ft | 491 kts | 103° |
| 2026-04-23 23:44 | 43.52918 | 53.59715 | 36816 ft | 491 kts | 103° |
| 2026-04-23 23:44 | 43.51587 | 53.68934 | 36835 ft | 491 kts | 103° |
| 2026-04-23 23:45 | 43.50029 | 53.79658 | 36821 ft | 491 kts | 103° |
| 2026-04-23 23:45 | 43.48680 | 53.88870 | 36843 ft | 491 kts | 103° |
| 2026-04-23 23:46 | 43.47543 | 53.96589 | 36828 ft | 491 kts | 103° |
| 2026-04-23 23:46 | 43.46190 | 54.05742 | 36835 ft | 491 kts | 103° |
| 2026-04-23 23:47 | 43.44820 | 54.14952 | 36838 ft | 491 kts | 104° |
| 2026-04-23 23:47 | 43.43445 | 54.24147 | 36834 ft | 490 kts | 104° |
| 2026-04-23 23:48 | 43.42064 | 54.33331 | 36828 ft | 490 kts | 104° |
| 2026-04-23 23:48 | 43.40677 | 54.42493 | 36828 ft | 489 kts | 104° |
| 2026-04-23 23:49 | 43.38584 | 54.56230 | 36843 ft | 489 kts | 104° |
| 2026-04-23 23:49 | 43.37181 | 54.65374 | 36836 ft | 488 kts | 104° |
| 2026-04-23 23:50 | 43.35771 | 54.74507 | 36841 ft | 488 kts | 104° |
| 2026-04-23 23:50 | 43.34356 | 54.83624 | 36843 ft | 488 kts | 105° |
| 2026-04-23 23:51 | 43.32935 | 54.92730 | 36851 ft | 487 kts | 105° |
| 2026-04-23 23:51 | 43.31506 | 55.01836 | 36854 ft | 487 kts | 105° |
| 2026-04-23 23:52 | 43.30072 | 55.10920 | 36855 ft | 487 kts | 105° |
| 2026-04-23 23:52 | 43.28642 | 55.19934 | 36861 ft | 486 kts | 105° |
| 2026-04-23 23:53 | 43.27195 | 55.29000 | 36865 ft | 486 kts | 105° |
| 2026-04-23 23:53 | 43.25741 | 55.38066 | 36867 ft | 486 kts | 105° |
| 2026-04-23 23:54 | 43.24282 | 55.47115 | 36867 ft | 486 kts | 105° |
| 2026-04-23 23:54 | 43.22813 | 55.56176 | 36872 ft | 487 kts | 105° |
| 2026-04-23 23:55 | 43.21335 | 55.65246 | 36879 ft | 487 kts | 106° |
| 2026-04-23 23:55 | 43.19846 | 55.74331 | 36880 ft | 488 kts | 106° |
| 2026-04-23 23:56 | 43.18362 | 55.83345 | 36878 ft | 488 kts | 106° |
| 2026-04-23 23:56 | 43.16862 | 55.92411 | 36881 ft | 489 kts | 106° |
| 2026-04-23 23:57 | 43.15373 | 56.01514 | 36880 ft | 490 kts | 104° |
| 2026-04-23 23:57 | 43.14202 | 56.10718 | 36886 ft | 492 kts | 102° |
| 2026-04-23 23:58 | 43.13154 | 56.19980 | 36888 ft | 492 kts | 102° |
| 2026-04-23 23:58 | 43.12079 | 56.29234 | 36887 ft | 492 kts | 102° |
| 2026-04-23 23:59 | 43.10962 | 56.38493 | 36891 ft | 493 kts | 103° |
| 2026-04-23 23:59 | 43.09823 | 56.47760 | 36893 ft | 493 kts | 103° |
| 2026-04-24 00:00 | 43.08687 | 56.56934 | 36891 ft | 493 kts | 103° |
| 2026-04-24 00:00 | 43.07536 | 56.66173 | 36904 ft | 493 kts | 103° |
| 2026-04-24 00:01 | 43.06380 | 56.75401 | 36888 ft | 493 kts | 103° |
| 2026-04-24 00:01 | 43.05217 | 56.84627 | 36893 ft | 492 kts | 103° |
| 2026-04-24 00:02 | 43.04045 | 56.93859 | 36901 ft | 492 kts | 103° |
| 2026-04-24 00:02 | 43.02869 | 57.03053 | 36907 ft | 492 kts | 103° |
| 2026-04-24 00:03 | 43.01685 | 57.12254 | 36897 ft | 492 kts | 103° |
| 2026-04-24 00:03 | 43.00492 | 57.21467 | 36898 ft | 491 kts | 103° |
| 2026-04-24 00:04 | 43.00096 | 57.24514 | 36899 ft | 491 kts | 103° |
| 2026-04-24 00:04 | 42.99242 | 57.31052 | 36901 ft | 491 kts | 103° |
| 2026-04-24 00:05 | 42.98045 | 57.40170 | 36898 ft | 492 kts | 103° |
| 2026-04-24 00:05 | 42.96830 | 57.49370 | 36904 ft | 492 kts | 103° |
| 2026-04-24 00:06 | 42.95607 | 57.58567 | 36904 ft | 492 kts | 103° |
| 2026-04-24 00:06 | 42.94379 | 57.67747 | 36904 ft | 492 kts | 103° |
| 2026-04-24 00:07 | 42.93141 | 57.76941 | 36903 ft | 492 kts | 103° |
| 2026-04-24 00:07 | 42.91895 | 57.86137 | 36908 ft | 493 kts | 103° |
| 2026-04-24 00:08 | 42.90648 | 57.95277 | 36905 ft | 493 kts | 104° |
| 2026-04-24 00:08 | 42.89385 | 58.04479 | 36903 ft | 493 kts | 104° |
| 2026-04-24 00:09 | 42.88118 | 58.13656 | 36904 ft | 493 kts | 104° |
| 2026-04-24 00:09 | 42.86840 | 58.22859 | 36904 ft | 493 kts | 104° |
| 2026-04-24 00:10 | 42.85555 | 58.32049 | 36904 ft | 493 kts | 104° |
| 2026-04-24 00:10 | 42.84264 | 58.41231 | 36907 ft | 493 kts | 104° |
| 2026-04-24 00:11 | 42.82967 | 58.50395 | 36908 ft | 492 kts | 104° |
| 2026-04-24 00:11 | 42.81671 | 58.59501 | 36906 ft | 492 kts | 104° |
| 2026-04-24 00:12 | 42.80363 | 58.68636 | 36906 ft | 492 kts | 104° |
| 2026-04-24 00:12 | 42.79048 | 58.77770 | 36908 ft | 491 kts | 104° |
| 2026-04-24 00:13 | 42.77728 | 58.86881 | 36905 ft | 491 kts | 105° |
| 2026-04-24 00:13 | 42.75523 | 58.95556 | 36900 ft | 480 kts | 123° |
| 2026-04-24 00:14 | 42.72237 | 59.03440 | 36900 ft | 479 kts | 124° |
| 2026-04-24 00:14 | 42.69036 | 59.11402 | 36902 ft | 480 kts | 123° |
| 2026-04-24 00:15 | 42.65892 | 59.19401 | 36908 ft | 480 kts | 122° |
| 2026-04-24 00:15 | 42.62756 | 59.27351 | 36898 ft | 480 kts | 123° |
| 2026-04-24 00:16 | 42.59582 | 59.35340 | 36903 ft | 480 kts | 123° |
| 2026-04-24 00:16 | 42.56402 | 59.43313 | 36904 ft | 481 kts | 123° |
| 2026-04-24 00:17 | 42.53215 | 59.51287 | 36908 ft | 481 kts | 123° |
| 2026-04-24 00:17 | 42.50017 | 59.59267 | 36902 ft | 481 kts | 123° |
| 2026-04-24 00:18 | 42.46890 | 59.67287 | 36910 ft | 483 kts | 121° |
| 2026-04-24 00:18 | 42.43969 | 59.75487 | 36910 ft | 484 kts | 120° |
| 2026-04-24 00:19 | 42.41087 | 59.83661 | 36903 ft | 484 kts | 120° |
| 2026-04-24 00:19 | 42.38146 | 59.91876 | 36907 ft | 484 kts | 120° |
| 2026-04-24 00:20 | 42.35187 | 60.00051 | 36903 ft | 484 kts | 120° |
| 2026-04-24 00:20 | 42.32220 | 60.08206 | 36916 ft | 484 kts | 120° |
| 2026-04-24 00:21 | 42.29239 | 60.16378 | 36911 ft | 484 kts | 120° |
| 2026-04-24 00:21 | 42.26261 | 60.24522 | 36909 ft | 483 kts | 121° |
| 2026-04-24 00:22 | 42.23284 | 60.32641 | 36910 ft | 483 kts | 121° |
| 2026-04-24 00:22 | 42.20297 | 60.40766 | 36915 ft | 482 kts | 121° |
| 2026-04-24 00:23 | 42.17333 | 60.48802 | 36914 ft | 482 kts | 121° |
| 2026-04-24 00:23 | 42.14341 | 60.56893 | 36919 ft | 481 kts | 121° |
| 2026-04-24 00:24 | 42.11351 | 60.64955 | 36922 ft | 481 kts | 121° |
| 2026-04-24 00:24 | 42.08354 | 60.73014 | 36924 ft | 480 kts | 121° |
| 2026-04-24 00:25 | 42.05358 | 60.81047 | 36930 ft | 480 kts | 121° |
| 2026-04-24 00:25 | 42.02355 | 60.89077 | 36926 ft | 480 kts | 121° |
| 2026-04-24 00:26 | 41.99348 | 60.97094 | 36918 ft | 480 kts | 121° |
| 2026-04-24 00:26 | 41.96337 | 61.05098 | 36918 ft | 480 kts | 121° |
| 2026-04-24 00:27 | 41.93330 | 61.13072 | 36926 ft | 480 kts | 121° |
| 2026-04-24 00:27 | 41.90307 | 61.21063 | 36928 ft | 481 kts | 121° |
| 2026-04-24 00:28 | 41.88661 | 61.25406 | 36928 ft | 481 kts | 121° |
| 2026-04-24 00:28 | 41.85626 | 61.33397 | 36933 ft | 481 kts | 121° |
| 2026-04-24 00:29 | 41.82581 | 61.41391 | 36933 ft | 481 kts | 121° |
| 2026-04-24 00:29 | 41.79533 | 61.49373 | 36938 ft | 481 kts | 121° |
| 2026-04-24 00:30 | 41.76476 | 61.57353 | 36938 ft | 481 kts | 121° |
| 2026-04-24 00:30 | 41.73409 | 61.65340 | 36940 ft | 481 kts | 122° |
| 2026-04-24 00:31 | 41.70360 | 61.73257 | 36946 ft | 481 kts | 122° |
| 2026-04-24 00:31 | 41.67289 | 61.81210 | 36948 ft | 481 kts | 122° |
| 2026-04-24 00:32 | 41.64214 | 61.89151 | 36947 ft | 481 kts | 122° |
| 2026-04-24 00:32 | 41.61130 | 61.97093 | 36955 ft | 481 kts | 122° |
| 2026-04-24 00:33 | 41.58043 | 62.05022 | 36959 ft | 481 kts | 122° |
| 2026-04-24 00:33 | 41.54949 | 62.12949 | 36960 ft | 481 kts | 122° |
| 2026-04-24 00:34 | 41.51860 | 62.20840 | 36963 ft | 481 kts | 122° |
| 2026-04-24 00:34 | 41.49284 | 62.27406 | 36961 ft | 480 kts | 122° |
| 2026-04-24 00:35 | 41.46179 | 62.35300 | 36964 ft | 480 kts | 122° |
| 2026-04-24 00:35 | 41.43066 | 62.43196 | 36969 ft | 480 kts | 122° |
| 2026-04-24 00:36 | 41.39950 | 62.51076 | 36967 ft | 480 kts | 122° |
| 2026-04-24 00:36 | 41.36802 | 62.58921 | 36981 ft | 480 kts | 123° |
| 2026-04-24 00:37 | 41.33628 | 62.66756 | 36976 ft | 481 kts | 123° |
| 2026-04-24 00:37 | 41.30471 | 62.74544 | 36979 ft | 481 kts | 123° |
| 2026-04-24 00:38 | 41.27292 | 62.82377 | 36979 ft | 481 kts | 123° |
| 2026-04-24 00:38 | 41.24112 | 62.90194 | 36981 ft | 481 kts | 123° |
| 2026-04-24 00:39 | 41.20921 | 62.98018 | 36981 ft | 482 kts | 123° |
| 2026-04-24 00:39 | 41.17721 | 63.05845 | 36983 ft | 482 kts | 123° |
| 2026-04-24 00:40 | 41.14523 | 63.13646 | 36980 ft | 482 kts | 123° |
| 2026-04-24 00:40 | 41.11311 | 63.21463 | 36985 ft | 482 kts | 123° |
| 2026-04-24 00:41 | 41.08111 | 63.29229 | 36984 ft | 482 kts | 123° |
| 2026-04-24 00:41 | 41.04901 | 63.37046 | 36990 ft | 483 kts | 123° |
| 2026-04-24 00:42 | 41.01687 | 63.44895 | 36985 ft | 483 kts | 123° |
| 2026-04-24 00:42 | 40.98487 | 63.52695 | 36987 ft | 483 kts | 123° |
| 2026-04-24 00:43 | 40.95278 | 63.60489 | 36990 ft | 482 kts | 123° |
| 2026-04-24 00:43 | 40.92059 | 63.68284 | 36986 ft | 482 kts | 123° |
| 2026-04-24 00:44 | 40.88840 | 63.76060 | 36992 ft | 482 kts | 123° |
| 2026-04-24 00:44 | 40.86452 | 63.81812 | 36984 ft | 482 kts | 123° |
| 2026-04-24 00:45 | 40.83227 | 63.89567 | 36986 ft | 482 kts | 123° |
| 2026-04-24 00:45 | 40.79992 | 63.97325 | 36991 ft | 482 kts | 123° |
| 2026-04-24 00:46 | 40.76751 | 64.05078 | 36989 ft | 482 kts | 123° |
| 2026-04-24 00:46 | 40.73504 | 64.12824 | 36985 ft | 483 kts | 123° |
| 2026-04-24 00:47 | 40.70253 | 64.20560 | 36989 ft | 483 kts | 123° |
| 2026-04-24 00:47 | 40.67012 | 64.28252 | 36990 ft | 483 kts | 124° |
| 2026-04-24 00:48 | 40.63744 | 64.35990 | 37003 ft | 483 kts | 124° |
| 2026-04-24 00:48 | 40.60478 | 64.43702 | 36981 ft | 483 kts | 124° |
| 2026-04-24 00:49 | 40.57202 | 64.51420 | 36977 ft | 483 kts | 124° |
| 2026-04-24 00:49 | 40.53918 | 64.59135 | 36989 ft | 483 kts | 124° |
| 2026-04-24 00:50 | 40.50641 | 64.66816 | 36984 ft | 483 kts | 124° |
| 2026-04-24 00:50 | 40.47346 | 64.74519 | 36981 ft | 483 kts | 124° |
| 2026-04-24 00:51 | 40.44055 | 64.82192 | 36985 ft | 482 kts | 124° |
| 2026-04-24 00:51 | 40.40759 | 64.89858 | 36990 ft | 482 kts | 124° |
| 2026-04-24 00:52 | 40.37449 | 64.97538 | 36992 ft | 482 kts | 124° |
| 2026-04-24 00:52 | 40.34160 | 65.05150 | 36994 ft | 482 kts | 124° |
| 2026-04-24 00:53 | 40.30854 | 65.12781 | 36992 ft | 482 kts | 124° |
| 2026-04-24 00:53 | 40.27536 | 65.20422 | 36997 ft | 482 kts | 124° |
| 2026-04-24 00:54 | 40.24210 | 65.28060 | 36994 ft | 483 kts | 124° |
| 2026-04-24 00:54 | 40.20876 | 65.35701 | 36997 ft | 483 kts | 124° |
| 2026-04-24 00:55 | 40.17538 | 65.43330 | 37000 ft | 483 kts | 125° |
| 2026-04-24 00:55 | 40.14199 | 65.50942 | 36999 ft | 483 kts | 125° |
| 2026-04-24 00:56 | 40.11420 | 65.57264 | 37003 ft | 483 kts | 125° |
| 2026-04-24 00:56 | 40.09061 | 65.62621 | 37004 ft | 484 kts | 125° |
| 2026-04-24 00:57 | 40.05699 | 65.70237 | 37002 ft | 484 kts | 125° |
| 2026-04-24 00:58 | 40.00664 | 65.81610 | 37013 ft | 485 kts | 125° |
| 2026-04-24 00:58 | 39.97265 | 65.89264 | 37015 ft | 485 kts | 125° |
| 2026-04-24 00:59 | 39.93893 | 65.96839 | 37009 ft | 485 kts | 125° |
| 2026-04-24 00:59 | 39.90500 | 66.04442 | 37007 ft | 486 kts | 125° |
| 2026-04-24 01:00 | 39.87094 | 66.12057 | 37004 ft | 486 kts | 125° |
| 2026-04-24 01:00 | 39.83681 | 66.19669 | 37004 ft | 486 kts | 125° |
| 2026-04-24 01:01 | 39.80263 | 66.27272 | 37001 ft | 487 kts | 126° |
| 2026-04-24 01:01 | 39.76839 | 66.34876 | 37001 ft | 487 kts | 126° |
| 2026-04-24 01:02 | 39.73211 | 66.42269 | 36997 ft | 480 kts | 136° |
| 2026-04-24 01:02 | 39.71028 | 66.45497 | 37020 ft | 477 kts | 138° |
| 2026-04-24 01:03 | 39.67059 | 66.51103 | 37003 ft | 477 kts | 139° |
| 2026-04-24 01:03 | 39.62554 | 66.57459 | 37008 ft | 478 kts | 138° |
| 2026-04-24 01:04 | 39.58123 | 66.63788 | 37006 ft | 478 kts | 138° |
| 2026-04-24 01:04 | 39.53629 | 66.70235 | 37010 ft | 478 kts | 138° |
| 2026-04-24 01:05 | 39.49201 | 66.76578 | 37004 ft | 478 kts | 138° |
| 2026-04-24 01:05 | 39.44728 | 66.82969 | 37011 ft | 478 kts | 138° |
| 2026-04-24 01:06 | 39.40251 | 66.89351 | 37008 ft | 479 kts | 139° |
| 2026-04-24 01:06 | 39.35763 | 66.95735 | 37010 ft | 480 kts | 138° |
| 2026-04-24 01:07 | 39.32545 | 67.00305 | 37024 ft | 480 kts | 138° |
| 2026-04-24 01:07 | 39.28043 | 67.06685 | 37009 ft | 481 kts | 139° |
| 2026-04-24 01:08 | 39.23528 | 67.13073 | 37017 ft | 481 kts | 139° |
| 2026-04-24 01:08 | 39.19017 | 67.19443 | 37029 ft | 481 kts | 139° |
| 2026-04-24 01:09 | 39.14517 | 67.25785 | 37039 ft | 481 kts | 139° |
| 2026-04-24 01:09 | 39.09997 | 67.32142 | 37056 ft | 481 kts | 139° |
| 2026-04-24 01:10 | 39.05474 | 67.38498 | 37072 ft | 481 kts | 139° |
| 2026-04-24 01:10 | 39.00945 | 67.44852 | 37032 ft | 480 kts | 139° |
| 2026-04-24 01:11 | 38.96436 | 67.51168 | 37079 ft | 478 kts | 139° |
| 2026-04-24 01:11 | 38.91940 | 67.57441 | 37113 ft | 476 kts | 139° |
| 2026-04-24 01:12 | 38.90461 | 67.59506 | 37118 ft | 476 kts | 139° |
| 2026-04-24 01:12 | 38.86224 | 67.65412 | 37123 ft | 477 kts | 139° |
| 2026-04-24 01:13 | 38.81726 | 67.71671 | 37139 ft | 479 kts | 139° |
| 2026-04-24 01:13 | 38.77191 | 67.77965 | 37126 ft | 481 kts | 139° |
| 2026-04-24 01:14 | 38.72619 | 67.84296 | 36680 ft | 488 kts | 139° |
| 2026-04-24 01:14 | 38.70277 | 67.87415 | 36324 ft | 481 kts | 142° |
| 2026-04-24 01:14 | 38.67893 | 67.90388 | 35740 ft | 477 kts | 143° |
| 2026-04-24 01:14 | 38.65496 | 67.93289 | 35185 ft | 474 kts | 143° |
| 2026-04-24 01:15 | 38.63076 | 67.96211 | 34530 ft | 476 kts | 143° |
| 2026-04-24 01:15 | 38.60681 | 67.99139 | 33986 ft | 476 kts | 143° |
| 2026-04-24 01:15 | 38.58311 | 68.02057 | 33433 ft | 473 kts | 142° |
| 2026-04-24 01:15 | 38.56186 | 68.05303 | 32905 ft | 481 kts | 127° |
| 2026-04-24 01:16 | 38.54737 | 68.09174 | 32515 ft | 484 kts | 112° |
| 2026-04-24 01:16 | 38.54034 | 68.13313 | 32150 ft | 485 kts | 96° |
| 2026-04-24 01:16 | 38.53953 | 68.17611 | 31736 ft | 482 kts | 92° |
| 2026-04-24 01:16 | 38.53970 | 68.21895 | 31287 ft | 479 kts | 92° |
| 2026-04-24 01:17 | 38.53979 | 68.26120 | 30847 ft | 475 kts | 92° |
| 2026-04-24 01:17 | 38.53951 | 68.30328 | 30411 ft | 472 kts | 93° |
| 2026-04-24 01:17 | 38.53892 | 68.34508 | 29958 ft | 468 kts | 94° |
| 2026-04-24 01:17 | 38.53820 | 68.38631 | 29430 ft | 464 kts | 94° |
| 2026-04-24 01:18 | 38.53776 | 68.42725 | 29109 ft | 456 kts | 92° |
| 2026-04-24 01:18 | 38.53810 | 68.46750 | 28684 ft | 452 kts | 91° |
| 2026-04-24 01:18 | 38.53875 | 68.50758 | 28239 ft | 447 kts | 91° |
| 2026-04-24 01:18 | 38.53939 | 68.54660 | 27790 ft | 444 kts | 91° |
| 2026-04-24 01:19 | 38.53994 | 68.58632 | 27342 ft | 440 kts | 91° |
| 2026-04-24 01:19 | 38.54037 | 68.62536 | 26893 ft | 437 kts | 91° |
| 2026-04-24 01:19 | 38.54073 | 68.66393 | 26458 ft | 434 kts | 91° |
| 2026-04-24 01:19 | 38.54106 | 68.70229 | 26027 ft | 431 kts | 91° |
| 2026-04-24 01:20 | 38.54137 | 68.74009 | 25605 ft | 428 kts | 91° |
| 2026-04-24 01:20 | 38.54126 | 68.77801 | 25167 ft | 424 kts | 97° |
| 2026-04-24 01:20 | 38.53451 | 68.81402 | 24740 ft | 414 kts | 117° |
| 2026-04-24 01:20 | 38.52038 | 68.84545 | 24332 ft | 403 kts | 133° |
| 2026-04-24 01:21 | 38.50085 | 68.87052 | 23936 ft | 394 kts | 143° |
| 2026-04-24 01:21 | 38.48019 | 68.89340 | 23440 ft | 393 kts | 144° |
| 2026-04-24 01:21 | 38.45951 | 68.91588 | 22976 ft | 390 kts | 144° |
| 2026-04-24 01:21 | 38.44577 | 68.93081 | 22674 ft | 388 kts | 144° |
| 2026-04-24 01:22 | 38.42542 | 68.95309 | 22249 ft | 385 kts | 143° |
| 2026-04-24 01:22 | 38.40518 | 68.97541 | 21834 ft | 382 kts | 143° |
| 2026-04-24 01:22 | 38.38524 | 68.99752 | 21415 ft | 379 kts | 143° |
| 2026-04-24 01:22 | 38.36541 | 69.01957 | 21009 ft | 377 kts | 143° |
| 2026-04-24 01:23 | 38.34575 | 69.04148 | 20601 ft | 374 kts | 143° |
| 2026-04-24 01:23 | 38.32620 | 69.06325 | 20200 ft | 372 kts | 143° |
| 2026-04-24 01:23 | 38.30675 | 69.08491 | 19801 ft | 370 kts | 143° |
| 2026-04-24 01:23 | 38.28738 | 69.10647 | 19393 ft | 368 kts | 143° |
| 2026-04-24 01:24 | 38.26808 | 69.12793 | 18993 ft | 367 kts | 143° |
| 2026-04-24 01:24 | 38.24891 | 69.14923 | 18601 ft | 365 kts | 142° |
| 2026-04-24 01:24 | 38.22971 | 69.17055 | 18142 ft | 365 kts | 142° |
| 2026-04-24 01:24 | 38.21060 | 69.19176 | 17706 ft | 363 kts | 142° |
| 2026-04-24 01:25 | 38.19164 | 69.21279 | 17300 ft | 361 kts | 142° |
| 2026-04-24 01:25 | 38.17282 | 69.23365 | 16896 ft | 358 kts | 142° |
| 2026-04-24 01:25 | 38.15410 | 69.25437 | 16506 ft | 355 kts | 142° |
| 2026-04-24 01:25 | 38.13554 | 69.27492 | 16124 ft | 352 kts | 142° |
| 2026-04-24 01:26 | 38.11716 | 69.29525 | 15732 ft | 350 kts | 142° |
| 2026-04-24 01:26 | 38.09912 | 69.31518 | 15358 ft | 347 kts | 142° |
| 2026-04-24 01:26 | 38.08072 | 69.33541 | 14941 ft | 345 kts | 143° |
| 2026-04-24 01:26 | 38.06183 | 69.35444 | 14429 ft | 347 kts | 145° |
| 2026-04-24 01:27 | 38.04270 | 69.37259 | 13920 ft | 349 kts | 146° |
| 2026-04-24 01:27 | 38.02308 | 69.39097 | 13325 ft | 351 kts | 145° |
| 2026-04-24 01:27 | 38.00346 | 69.40942 | 12769 ft | 352 kts | 145° |
| 2026-04-24 01:27 | 37.98387 | 69.42795 | 12219 ft | 352 kts | 144° |
| 2026-04-24 01:28 | 37.96429 | 69.44653 | 11696 ft | 351 kts | 144° |
| 2026-04-24 01:28 | 37.94474 | 69.46515 | 11146 ft | 351 kts | 144° |
| 2026-04-24 01:28 | 37.92520 | 69.48379 | 10629 ft | 351 kts | 144° |
| 2026-04-24 01:28 | 37.90579 | 69.50230 | 10102 ft | 350 kts | 143° |
| 2026-04-24 01:29 | 37.88646 | 69.52071 | 9935 ft | 339 kts | 143° |
| 2026-04-24 01:29 | 37.86808 | 69.53821 | 9864 ft | 324 kts | 143° |
| 2026-04-24 01:29 | 37.85041 | 69.55501 | 9774 ft | 312 kts | 143° |
| 2026-04-24 01:29 | 37.83525 | 69.57388 | 9668 ft | 302 kts | 125° |
| 2026-04-24 01:30 | 37.82660 | 69.59743 | 9594 ft | 291 kts | 107° |
| 2026-04-24 01:30 | 37.82153 | 69.62154 | 9504 ft | 277 kts | 105° |
| 2026-04-24 01:30 | 37.81691 | 69.64460 | 9394 ft | 262 kts | 105° |
| 2026-04-24 01:30 | 37.81250 | 69.66607 | 9280 ft | 248 kts | 106° |
| 2026-04-24 01:31 | 37.80945 | 69.68068 | 9181 ft | 240 kts | 106° |
| 2026-04-24 01:31 | 37.80586 | 69.69769 | 8932 ft | 236 kts | 106° |
| 2026-04-24 01:31 | 37.80220 | 69.71666 | 8840 ft | 214 kts | 96° |
| 2026-04-24 01:31 | 37.80526 | 69.73429 | 8387 ft | 209 kts | 55° |
| 2026-04-24 01:32 | 37.81686 | 69.74405 | 8022 ft | 199 kts | 14° |
| 2026-04-24 01:32 | 37.83028 | 69.74802 | 7537 ft | 198 kts | 16° |
| 2026-04-24 01:32 | 37.84342 | 69.75282 | 7118 ft | 195 kts | 17° |
| 2026-04-24 01:32 | 37.85640 | 69.75760 | 6685 ft | 193 kts | 18° |
| 2026-04-24 01:33 | 37.86983 | 69.75876 | 5707 ft | 214 kts | 340° |
| 2026-04-24 01:33 | 37.88406 | 69.75748 | 5255 ft | 202 kts | 21° |
| 2026-04-24 01:33 | 37.88667 | 69.75878 | 5119 ft | 203 kts | 27° |
| 2026-04-24 01:34 | 37.89254 | 69.76339 | 4731 ft | 207 kts | 40° |
| 2026-04-24 01:34 | 37.90166 | 69.77750 | 4134 ft | 204 kts | 53° |
| 2026-04-24 01:34 | 37.91388 | 69.78481 | 3386 ft | 209 kts | 355° |
| 2026-04-24 01:34 | 37.92634 | 69.78311 | 3059 ft | 195 kts | 6° |
| 2026-04-24 01:35 | 37.93911 | 69.78708 | 2635 ft | 186 kts | 19° |
| 2026-04-24 01:35 | 37.95099 | 69.79191 | 2397 ft | 172 kts | 17° |
| 2026-04-24 01:35 | 37.96222 | 69.79613 | 2320 ft | 168 kts | 17° |
| 2026-04-24 01:35 | 37.97344 | 69.80022 | 2319 ft | 166 kts | 13° |
| 2026-04-24 01:36 | 37.98369 | 69.80376 | 2216 ft | 133 kts | 18° |
| 2026-04-24 01:36 | 37.99145 | 69.80659 | 2248 ft | 99 kts | 16° |
| 2026-04-24 01:36 | 37.99589 | 69.80818 | 2273 ft | 46 kts | 15° |
| 2026-04-24 01:36 | 37.99778 | 69.80883 | 2282 ft | 17 kts | 5° |
| 2026-04-24 01:37 | 37.99801 | 69.80899 | 2283 ft | 1 kts | 94° |
| 2026-04-24 01:37 | 37.99795 | 69.80902 | 2283 ft | 1 kts | 155° |
| 2026-04-24 01:37 | 37.99778 | 69.80897 | 2282 ft | 5 kts | 193° |
| 2026-04-24 01:37 | 37.99713 | 69.80876 | 2279 ft | 14 kts | 194° |
| 2026-04-24 01:38 | 37.99592 | 69.80836 | 2274 ft | 22 kts | 195° |
| 2026-04-24 01:38 | 37.99415 | 69.80774 | 2263 ft | 30 kts | 195° |
| 2026-04-24 01:38 | 37.99192 | 69.80691 | 2251 ft | 36 kts | 196° |
| 2026-04-24 01:38 | 37.99030 | 69.80632 | 2243 ft | 22 kts | 193° |
| 2026-04-24 01:39 | 37.98903 | 69.80680 | 2238 ft | 16 kts | 152° |
| 2026-04-24 01:39 | 37.98800 | 69.80728 | 2233 ft | 16 kts | 182° |
| 2026-04-24 01:39 | 37.98687 | 69.80690 | 2224 ft | 18 kts | 195° |
| 2026-04-24 01:39 | 37.98573 | 69.80650 | 2219 ft | 17 kts | 196° |
| 2026-04-24 01:40 | 37.98463 | 69.80611 | 2214 ft | 7 kts | 194° |
| 2026-04-24 01:40 | 37.98451 | 69.80607 | 2212 ft | 3 kts | 194° |
| 2026-04-24 01:40 | 37.98423 | 69.80598 | 2213 ft | 6 kts | 195° |
| 2026-04-24 01:40 | 37.98376 | 69.80578 | 2208 ft | 9 kts | 197° |
| 2026-04-24 01:41 | 37.98310 | 69.80554 | 2207 ft | 11 kts | 196° |
| 2026-04-24 01:41 | 37.98285 | 69.80544 | 2206 ft | 2 kts | 196° |
| 2026-04-24 01:41 | 37.98261 | 69.80537 | 2203 ft | 5 kts | 192° |
| 2026-04-24 01:41 | 37.98239 | 69.80541 | 2204 ft | 3 kts | 153° |
| 2026-04-24 01:42 | 37.98229 | 69.80565 | 2202 ft | 3 kts | 109° |
| 2026-04-24 01:42 | 37.98225 | 69.80582 | 2203 ft | 0 kts | 107° |